createdAt,value
2019-04-14T00:04:20.292Z,26.53
2019-04-14T00:09:25.160Z,26.29
2019-04-14T00:14:29.357Z,26.29
2019-04-14T00:19:33.019Z,27.44
2019-04-14T00:24:36.580Z,27.50
2019-04-14T00:29:41.352Z,28.20
2019-04-14T00:35:03.899Z,28.74
2019-04-14T00:40:10.426Z,29.24
2019-04-14T00:45:40.459Z,29.77
2019-04-14T00:50:36.619Z,30.77
2019-04-14T00:55:40.199Z,33.09
2019-04-14T01:00:45.045Z,33.53
2019-04-14T01:05:48.746Z,33.89
2019-04-14T01:10:52.359Z,34.09
2019-04-14T01:16:03.977Z,34.52
2019-04-14T01:21:02.414Z,34.55
2019-04-14T01:26:07.205Z,34.07
2019-04-14T01:31:11.882Z,32.77
2019-04-14T01:36:16.932Z,30.45
2019-04-14T01:41:21.682Z,29.11
2019-04-14T01:46:28.370Z,27.71
2019-04-14T01:51:41.741Z,27.17
2019-04-14T01:57:04.604Z,27.48
2019-04-14T02:02:09.791Z,28.19
2019-04-14T02:07:14.504Z,28.84
2019-04-14T02:12:19.210Z,29.55
2019-04-14T02:17:24.104Z,29.97
2019-04-14T02:22:28.829Z,30.77
2019-04-14T02:27:33.867Z,31.91
2019-04-14T02:33:05.377Z,33.22
2019-04-14T02:38:14.284Z,33.77
2019-04-14T02:48:38.380Z,34.21
2019-04-14T02:53:27.147Z,34.55
2019-04-14T02:58:38.462Z,34.63
2019-04-14T03:08:55.062Z,32.27
2019-04-14T03:13:51.101Z,30.50
2019-04-14T03:19:06.752Z,29.15
2019-04-14T03:24:15.850Z,27.91
2019-04-14T03:29:36.455Z,27.91
2019-04-14T03:34:58.155Z,28.30
2019-04-14T03:44:41.531Z,29.94
2019-04-14T03:49:48.437Z,30.43
2019-04-14T03:54:44.399Z,31.63
2019-04-14T03:59:30.319Z,31.77
2019-04-14T04:04:33.973Z,33.55
2019-04-14T04:09:39.133Z,34.65
2019-04-14T04:14:42.715Z,35.46
2019-04-14T04:19:51.398Z,35.30
2019-04-14T04:25:00.781Z,35.28
2019-04-14T04:30:23.877Z,35.60
2019-04-14T04:35:32.545Z,35.64
2019-04-14T04:40:37.483Z,35.00
2019-04-14T04:45:41.229Z,33.71
2019-04-14T04:50:45.351Z,31.79
2019-04-14T04:55:50.271Z,30.05
2019-04-14T05:00:55.723Z,28.76
2019-04-14T05:06:09.309Z,27.97
2019-04-14T05:11:20.911Z,28.52
2019-04-14T05:16:24.540Z,29.27
2019-04-14T05:21:28.142Z,29.51
2019-04-14T05:26:33.011Z,30.05
2019-04-14T05:31:36.776Z,30.53
2019-04-14T05:36:41.150Z,31.14
2019-04-14T05:41:56.849Z,31.66
2019-04-14T05:46:51.297Z,32.40
2019-04-14T05:51:55.060Z,33.50
2019-04-14T05:56:58.643Z,33.95
2019-04-14T06:02:02.640Z,33.95
2019-04-14T06:07:06.292Z,34.42
2019-04-14T06:12:09.923Z,34.35
2019-04-14T06:17:13.478Z,34.57
2019-04-14T06:22:17.079Z,34.30
2019-04-14T06:27:20.639Z,33.61
2019-04-14T06:32:37.977Z,32.24
2019-04-14T06:37:49.279Z,30.17
2019-04-14T06:42:52.945Z,28.96
2019-04-14T06:47:57.123Z,27.65
2019-04-14T06:53:00.720Z,27.43
2019-04-14T06:58:04.725Z,27.42
2019-04-14T07:03:08.335Z,27.63
2019-04-14T07:08:11.924Z,27.32
2019-04-14T07:13:15.494Z,27.61
2019-04-14T07:18:20.617Z,27.77
2019-04-14T07:23:24.226Z,28.31
2019-04-14T07:28:27.796Z,28.63
2019-04-14T07:33:35.992Z,29.02
2019-04-14T07:38:43.907Z,29.20
2019-04-14T07:44:01.656Z,29.64
2019-04-14T07:49:23.295Z,30.15
2019-04-14T07:54:31.453Z,30.50
2019-04-14T07:59:55.442Z,30.59
2019-04-14T08:05:00.566Z,30.90
2019-04-14T08:10:07.597Z,31.17
2019-04-14T08:15:11.558Z,31.27
2019-04-14T08:20:26.695Z,31.53
2019-04-14T08:25:20.841Z,31.27
2019-04-14T08:30:24.455Z,31.65
2019-04-14T08:35:28.022Z,31.43
2019-04-14T08:40:31.648Z,31.43
2019-04-14T08:45:36.783Z,30.62
2019-04-14T08:50:41.942Z,30.01
2019-04-14T08:55:56.006Z,27.63
2019-04-14T09:01:03.949Z,28.01
2019-04-14T09:06:25.352Z,28.08
2019-04-14T09:11:36.369Z,28.16
2019-04-14T09:16:39.996Z,28.55
2019-04-14T09:21:43.562Z,29.16
2019-04-14T09:26:47.246Z,29.19
2019-04-14T09:31:51.128Z,29.55
2019-04-14T09:36:54.738Z,29.35
2019-04-14T09:41:58.300Z,29.85
2019-04-14T09:47:01.915Z,30.46
2019-04-14T09:52:05.489Z,30.71
2019-04-14T09:57:09.065Z,30.99
2019-04-14T10:02:12.683Z,31.28
2019-04-14T10:07:16.253Z,31.22
2019-04-14T10:12:19.872Z,31.57
2019-04-14T10:17:23.446Z,30.98
2019-04-14T10:22:33.801Z,31.85
2019-04-14T10:27:32.365Z,31.61
2019-04-14T10:32:35.979Z,31.95
2019-04-14T10:37:39.542Z,32.55
2019-04-14T10:42:43.162Z,34.33
2019-04-14T10:47:46.725Z,33.89
2019-04-14T10:52:50.996Z,33.15
2019-04-14T10:57:54.557Z,33.22
2019-04-14T11:02:58.163Z,33.44
2019-04-14T11:08:01.742Z,32.69
2019-04-14T11:13:05.346Z,30.88
2019-04-14T11:18:09.024Z,29.34
2019-04-14T11:23:13.623Z,28.67
2019-04-14T11:28:17.419Z,28.82
2019-04-14T11:33:37.661Z,29.38
2019-04-14T11:38:45.862Z,28.98
2019-04-14T11:43:49.473Z,30.04
2019-04-14T11:48:53.019Z,30.05
2019-04-14T11:53:56.635Z,30.73
2019-04-14T11:59:00.499Z,30.58
2019-04-14T12:04:16.099Z,31.61
2019-04-14T12:09:24.332Z,32.16
2019-04-14T12:14:27.980Z,32.50
2019-04-14T12:19:31.626Z,33.25
2019-04-14T12:24:35.247Z,34.65
2019-04-14T12:29:39.090Z,34.27
2019-04-14T12:34:42.901Z,33.42
2019-04-14T12:39:46.471Z,34.02
2019-04-14T12:45:07.680Z,34.39
2019-04-14T12:50:27.943Z,34.35
2019-04-14T12:55:31.500Z,33.50
2019-04-14T13:00:39.620Z,33.69
2019-04-14T13:05:43.447Z,34.60
2019-04-14T13:10:47.278Z,36.25
2019-04-14T13:15:51.001Z,35.83
2019-04-14T13:20:54.619Z,38.46
2019-04-14T13:25:58.234Z,38.53
2019-04-14T13:31:01.797Z,38.00
2019-04-14T13:36:05.438Z,35.58
2019-04-14T13:41:08.991Z,36.09
2019-04-14T13:46:12.601Z,36.07
2019-04-14T13:51:16.165Z,35.33
2019-04-14T13:56:19.800Z,35.09
2019-04-14T14:01:23.323Z,32.77
2019-04-14T14:06:27.271Z,33.24
2019-04-14T14:11:35.417Z,33.11
2019-04-14T14:16:40.583Z,35.08
2019-04-14T14:21:48.601Z,34.16
2019-04-14T14:26:56.830Z,33.64
2019-04-14T14:32:02.081Z,34.37
2019-04-14T14:37:05.761Z,34.08
2019-04-14T14:42:09.430Z,34.05
2019-04-14T14:47:17.553Z,35.61
2019-04-14T14:52:21.991Z,34.57
2019-04-14T14:57:25.935Z,35.28
2019-04-14T15:02:29.553Z,34.00
2019-04-14T15:07:33.186Z,35.83
2019-04-14T15:12:38.368Z,34.32
2019-04-14T15:17:42.166Z,34.89
2019-04-14T15:22:46.363Z,34.74
2019-04-14T15:27:50.866Z,35.15
2019-04-14T15:32:54.855Z,36.53
2019-04-14T15:37:58.455Z,36.75
2019-04-14T15:43:02.239Z,38.20
2019-04-14T15:48:05.870Z,36.65
2019-04-14T15:53:09.563Z,35.33
2019-04-14T15:58:14.738Z,35.85
2019-04-14T16:03:19.871Z,34.93
2019-04-14T16:08:40.146Z,35.18
2019-04-14T16:13:45.928Z,33.70
2019-04-14T16:18:51.539Z,33.47
2019-04-14T16:23:57.349Z,32.97
2019-04-14T16:34:45.462Z,33.65
2019-04-14T16:39:49.050Z,34.03
2019-04-14T16:44:52.603Z,33.54
2019-04-14T16:49:56.221Z,33.87
2019-04-14T16:55:01.372Z,34.81
2019-04-14T17:00:06.297Z,34.49
2019-04-14T17:05:09.959Z,34.96
2019-04-14T17:10:13.573Z,34.86
2019-04-14T17:15:31.058Z,34.04
2019-04-14T17:20:39.465Z,34.88
2019-04-14T17:25:44.631Z,34.94
2019-04-14T17:31:01.550Z,35.67
2019-04-14T17:36:06.770Z,35.38
2019-04-14T17:41:12.176Z,35.57
2019-04-14T17:46:33.999Z,36.49
2019-04-14T17:51:39.155Z,35.49
2019-04-14T17:57:00.909Z,36.16
2019-04-14T18:02:06.446Z,38.11
2019-04-14T18:07:17.470Z,36.80
2019-04-14T18:12:25.467Z,34.53
2019-04-14T18:17:47.095Z,33.60
2019-04-14T18:22:51.088Z,33.63
2019-04-14T18:27:59.238Z,33.26
2019-04-14T18:33:20.699Z,33.54
2019-04-14T18:38:41.459Z,33.12
2019-04-14T18:43:46.646Z,34.42
2019-04-14T18:48:51.915Z,33.36
2019-04-14T18:53:57.122Z,34.40
2019-04-14T18:59:18.587Z,34.06
2019-04-14T19:04:22.159Z,33.82
2019-04-14T19:09:26.666Z,35.35
2019-04-14T19:14:32.627Z,35.86
2019-04-14T19:19:38.380Z,35.18
2019-04-14T19:24:45.272Z,35.18
2019-04-14T19:29:50.765Z,34.78
2019-04-14T19:34:55.914Z,34.84
2019-04-14T19:40:02.004Z,36.24
2019-04-14T19:45:07.714Z,33.47
2019-04-14T19:50:11.899Z,36.98
2019-04-14T19:55:20.499Z,36.49
2019-04-14T20:00:23.314Z,36.70
2019-04-14T20:05:27.521Z,34.75
2019-04-14T20:10:32.008Z,36.50
2019-04-14T20:15:37.876Z,34.74
2019-04-14T20:21:00.526Z,33.68
2019-04-14T20:26:25.125Z,33.15
2019-04-14T20:31:39.564Z,35.03
2019-04-14T20:36:43.262Z,34.44
2019-04-14T20:41:46.932Z,35.61
2019-04-14T20:46:50.581Z,35.21
2019-04-14T20:51:54.264Z,35.54
2019-04-14T20:56:57.808Z,34.96
2019-04-14T21:02:19.494Z,36.69
2019-04-14T21:07:41.087Z,36.79
2019-04-14T21:12:46.296Z,36.26
2019-04-14T21:18:03.521Z,36.58
2019-04-14T21:23:20.554Z,36.12
2019-04-14T21:28:44.147Z,37.58
2019-04-14T21:33:55.440Z,36.12
2019-04-14T21:39:01.460Z,34.23
2019-04-14T21:44:05.300Z,31.81
2019-04-14T21:49:08.964Z,31.40
2019-04-14T21:54:12.666Z,31.56
2019-04-14T21:59:17.831Z,32.04
2019-04-14T22:04:29.052Z,33.01
2019-04-14T22:09:34.176Z,32.98
2019-04-14T22:14:38.020Z,35.17
2019-04-14T22:19:41.610Z,35.33
2019-04-14T22:24:45.188Z,36.29
2019-04-14T22:29:48.772Z,36.42
2019-04-14T22:34:52.375Z,36.05
2019-04-14T22:39:57.043Z,37.10
2019-04-14T22:45:00.624Z,36.38
2019-04-14T22:50:05.136Z,36.86
2019-04-14T22:55:08.676Z,36.33
2019-04-14T23:00:19.909Z,36.71
2019-04-14T23:05:25.089Z,36.16
2019-04-14T23:10:30.480Z,36.64
2019-04-14T23:15:51.995Z,36.94
2019-04-14T23:21:12.689Z,36.10
2019-04-14T23:26:16.359Z,36.62
2019-04-14T23:31:20.584Z,36.62
2019-04-14T23:36:24.567Z,35.28
2019-04-14T23:41:28.989Z,33.21
2019-04-14T23:46:32.543Z,31.64
2019-04-14T23:51:36.124Z,31.59
2019-04-14T23:56:39.707Z,31.83
